Time;durP1;ratioP1;P1;durP2;ratioP2;P2;SDS_P1;SDS_P2;PMS_P1;PMS_P2;Temp;Humidity;BMP_temperature;BMP_pressure;BME280_temperature;BME280_humidity;BME280_pressure;Samples;Min_cycle;Max_cycle;Signal;HPM_P1;HPM_P2
2021/12/20 00:00:54;;;;;;;24.40;3.72;;;;;;;;;;4836293;29;20635;-86
2021/12/20 00:03:20;;;;;;;27.45;4.32;;;;;;;;;;4843801;29;20626;-84
2021/12/20 00:05:46;;;;;;;32.55;4.20;;;;;;;;;;4856144;29;20769;-84
2021/12/20 00:08:12;;;;;;;38.85;4.85;;;;;;;;;;4851283;29;20067;-85
2021/12/20 00:10:38;;;;;;;21.83;3.60;;;;;;;;;;4854292;29;20408;-85
2021/12/20 00:13:04;;;;;;;27.30;5.10;;;;;;;;;;4838521;29;20108;-85
2021/12/20 00:15:31;;;;;;;28.92;4.30;;;;;;;;;;4856701;29;20372;-82
2021/12/20 00:17:57;;;;;;;17.60;3.47;;;;;;;;;;4856200;29;20657;-83
2021/12/20 00:20:23;;;;;;;25.52;4.78;;;;;;;;;;4836214;29;20078;-84
2021/12/20 00:22:49;;;;;;;32.10;4.35;;;;;;;;;;4836894;29;20402;-85
2021/12/20 00:25:15;;;;;;;27.10;3.85;;;;;;;;;;4833863;29;20037;-84
2021/12/20 00:27:41;;;;;;;43.53;5.07;;;;;;;;;;4837089;29;20033;-84
2021/12/20 00:30:08;;;;;;;28.77;4.65;;;;;;;;;;4854900;29;21008;-85
2021/12/20 00:32:34;;;;;;;25.95;3.83;;;;;;;;;;4852816;29;20037;-85
2021/12/20 00:35:04;;;;;;;17.75;3.50;;;;;;;;;;4834212;29;21132;-84
2021/12/20 00:40:22;;;;;;;27.45;4.30;;;;;;;;;;4853316;29;20052;-84
2021/12/20 00:42:52;;;;;;;27.25;4.60;;;;;;;;;;4832600;29;20030;-83
2021/12/20 00:45:19;;;;;;;26.52;3.85;;;;;;;;;;4837971;29;20038;-85
2021/12/20 00:47:45;;;;;;;40.83;6.18;;;;;;;;;;4847087;29;20044;-84
2021/12/20 00:50:12;;;;;;;32.20;3.42;;;;;;;;;;4839260;29;20070;-84
2021/12/20 00:52:39;;;;;;;31.42;4.05;;;;;;;;;;4835802;29;20390;-84
2021/12/20 00:55:05;;;;;;;32.85;4.28;;;;;;;;;;4850306;29;20042;-85
2021/12/20 00:57:31;;;;;;;24.85;4.38;;;;;;;;;;4852764;29;20038;-84
2021/12/20 00:59:57;;;;;;;31.85;4.05;;;;;;;;;;4868189;29;20036;-85
2021/12/20 01:02:23;;;;;;;18.33;3.03;;;;;;;;;;4856985;29;20527;-85
2021/12/20 01:04:49;;;;;;;22.85;2.97;;;;;;;;;;4855918;29;20033;-84
2021/12/20 01:07:16;;;;;;;17.40;2.95;;;;;;;;;;4855461;29;20115;-84
2021/12/20 01:09:42;;;;;;;24.05;3.15;;;;;;;;;;4870019;29;20061;-83
2021/12/20 01:12:15;;;;;;;21.35;2.47;;;;;;;;;;4872592;29;20152;-84
2021/12/20 01:14:41;;;;;;;17.65;3.55;;;;;;;;;;4855381;29;20041;-84
2021/12/20 01:17:07;;;;;;;15.18;2.10;;;;;;;;;;4871157;29;20481;-85
2021/12/20 01:19:33;;;;;;;16.13;2.55;;;;;;;;;;4855539;29;20457;-83
2021/12/20 01:22:00;;;;;;;10.48;2.50;;;;;;;;;;4861588;29;20048;-85
2021/12/20 01:24:26;;;;;;;22.65;2.90;;;;;;;;;;4858490;29;20036;-85
2021/12/20 01:26:52;;;;;;;18.40;4.03;;;;;;;;;;4868949;29;20051;-83
2021/12/20 01:29:18;;;;;;;14.55;2.00;;;;;;;;;;4857815;29;20033;-84
2021/12/20 01:31:44;;;;;;;18.95;2.30;;;;;;;;;;4868974;29;20029;-85
2021/12/20 01:34:10;;;;;;;20.05;2.17;;;;;;;;;;4856558;29;20755;-84
2021/12/20 01:36:36;;;;;;;18.90;2.65;;;;;;;;;;4867647;29;21251;-85
2021/12/20 01:39:02;;;;;;;20.70;2.30;;;;;;;;;;4871519;29;20041;-84
2021/12/20 01:41:28;;;;;;;15.50;2.88;;;;;;;;;;4854341;29;20033;-85
2021/12/20 01:43:54;;;;;;;10.10;2.17;;;;;;;;;;4859147;29;20044;-84
2021/12/20 01:46:21;;;;;;;15.80;2.67;;;;;;;;;;4850198;29;20536;-83
2021/12/20 01:48:48;;;;;;;20.63;2.63;;;;;;;;;;4851798;29;20032;-84
2021/12/20 01:54:04;;;;;;;19.70;1.98;;;;;;;;;;4840693;29;20025;-85
2021/12/20 01:56:33;;;;;;;11.32;2.13;;;;;;;;;;4858594;29;20568;-84
2021/12/20 01:59:03;;;;;;;14.13;1.80;;;;;;;;;;4846835;29;20081;-84
2021/12/20 02:01:30;;;;;;;15.10;2.28;;;;;;;;;;4853491;29;20533;-84
2021/12/20 02:03:59;;;;;;;15.23;2.10;;;;;;;;;;4851306;29;20029;-85
2021/12/20 02:06:39;;;;;;;9.05;2.47;;;;;;;;;;4852284;29;20938;-84
2021/12/20 02:09:11;;;;;;;15.15;1.92;;;;;;;;;;4837250;29;20034;-84
2021/12/20 02:11:41;;;;;;;22.33;2.40;;;;;;;;;;4834064;29;20094;-84
2021/12/20 02:14:07;;;;;;;15.93;2.35;;;;;;;;;;4852031;29;20764;-84
2021/12/20 02:16:34;;;;;;;21.50;1.95;;;;;;;;;;4851197;29;20118;-84
2021/12/20 02:19:04;;;;;;;14.70;3.35;;;;;;;;;;4837996;29;20034;-84
2021/12/20 02:21:31;;;;;;;18.85;3.20;;;;;;;;;;4848844;29;20037;-85
2021/12/20 02:23:57;;;;;;;13.15;2.08;;;;;;;;;;4854012;29;20037;-85
2021/12/20 02:26:23;;;;;;;10.45;2.10;;;;;;;;;;4835769;29;20056;-83
2021/12/20 02:28:52;;;;;;;27.75;2.78;;;;;;;;;;4850414;29;20030;-84
2021/12/20 02:39:22;;;;;;;16.27;1.88;;;;;;;;;;4841830;29;20040;-85
2021/12/20 02:41:48;;;;;;;19.30;2.40;;;;;;;;;;4834179;29;20038;-84
2021/12/20 02:44:19;;;;;;;15.95;2.38;;;;;;;;;;4835921;29;20124;-83
2021/12/20 02:49:14;;;;;;;16.25;1.75;;;;;;;;;;4852051;29;20038;-84
2021/12/20 02:51:41;;;;;;;13.18;2.10;;;;;;;;;;4847150;29;20034;-84
2021/12/20 02:54:08;;;;;;;19.45;2.58;;;;;;;;;;4831566;29;20031;-85
2021/12/20 02:56:34;;;;;;;11.45;2.03;;;;;;;;;;4835899;29;20037;-84
2021/12/20 02:59:01;;;;;;;17.83;2.35;;;;;;;;;;4848767;29;20060;-84
2021/12/20 03:01:27;;;;;;;16.05;1.88;;;;;;;;;;4851611;29;20061;-84
2021/12/20 03:03:54;;;;;;;20.38;2.60;;;;;;;;;;4863993;29;20048;-82
2021/12/20 03:06:26;;;;;;;15.75;2.00;;;;;;;;;;4850908;29;20033;-85
2021/12/20 03:08:54;;;;;;;11.13;2.25;;;;;;;;;;4851696;29;20227;-84
2021/12/20 03:11:21;;;;;;;10.48;2.22;;;;;;;;;;4870408;29;20116;-84
2021/12/20 03:13:51;;;;;;;15.75;4.32;;;;;;;;;;4848993;29;20120;-84
2021/12/20 03:16:17;;;;;;;16.85;2.17;;;;;;;;;;4852470;29;20045;-84
2021/12/20 03:18:43;;;;;;;12.77;2.45;;;;;;;;;;4854515;29;20127;-83
2021/12/20 03:21:09;;;;;;;17.60;2.55;;;;;;;;;;4857498;29;20061;-85
2021/12/20 03:23:35;;;;;;;15.68;2.08;;;;;;;;;;4854702;29;20379;-85
2021/12/20 03:26:08;;;;;;;17.95;2.85;;;;;;;;;;4871134;29;20108;-84
2021/12/20 03:28:34;;;;;;;10.18;1.45;;;;;;;;;;4848735;29;20454;-85
2021/12/20 03:31:00;;;;;;;12.13;2.00;;;;;;;;;;4850732;29;20089;-84
2021/12/20 03:33:26;;;;;;;23.77;2.88;;;;;;;;;;4867026;29;20033;-85
2021/12/20 03:35:52;;;;;;;9.30;2.15;;;;;;;;;;4853634;29;20116;-84
2021/12/20 03:38:18;;;;;;;13.60;2.28;;;;;;;;;;4868340;29;20113;-84
2021/12/20 03:40:44;;;;;;;20.90;2.55;;;;;;;;;;4871054;29;20691;-83
2021/12/20 03:43:12;;;;;;;16.20;2.30;;;;;;;;;;4853403;29;20029;-83
2021/12/20 03:45:38;;;;;;;19.70;2.83;;;;;;;;;;4869846;29;20037;-84
2021/12/20 03:48:04;;;;;;;17.52;2.42;;;;;;;;;;4857923;29;20711;-84
2021/12/20 03:50:30;;;;;;;11.55;2.03;;;;;;;;;;4871541;29;20033;-85
2021/12/20 03:52:56;;;;;;;15.32;1.67;;;;;;;;;;4871895;29;20064;-84
2021/12/20 03:55:22;;;;;;;11.98;2.42;;;;;;;;;;4854838;29;20064;-84
2021/12/20 03:57:48;;;;;;;20.55;2.63;;;;;;;;;;4868516;29;20568;-84
2021/12/20 04:00:16;;;;;;;21.73;2.28;;;;;;;;;;4871220;29;20613;-85
2021/12/20 04:02:45;;;;;;;16.40;1.90;;;;;;;;;;4872698;29;20025;-84
2021/12/20 04:05:11;;;;;;;16.83;2.88;;;;;;;;;;4855266;29;20032;-85
2021/12/20 04:07:38;;;;;;;15.70;2.25;;;;;;;;;;4856441;29;20509;-84
2021/12/20 04:10:04;;;;;;;25.23;3.03;;;;;;;;;;4858118;29;20071;-85
2021/12/20 04:12:30;;;;;;;17.30;1.83;;;;;;;;;;4868499;29;20033;-84
2021/12/20 04:14:57;;;;;;;18.98;2.30;;;;;;;;;;4859906;29;20032;-84
2021/12/20 04:17:24;;;;;;;12.95;1.92;;;;;;;;;;4871933;29;20048;-84
2021/12/20 04:19:50;;;;;;;13.55;2.40;;;;;;;;;;4860117;29;20128;-85
2021/12/20 04:22:19;;;;;;;14.60;2.90;;;;;;;;;;4872378;29;20077;-84
2021/12/20 04:24:45;;;;;;;21.00;1.80;;;;;;;;;;4856025;29;20515;-83
2021/12/20 04:27:11;;;;;;;10.13;1.80;;;;;;;;;;4855969;29;20032;-84
2021/12/20 04:29:37;;;;;;;12.73;2.33;;;;;;;;;;4854002;29;20739;-84
2021/12/20 04:32:03;;;;;;;11.02;1.88;;;;;;;;;;4871412;29;20443;-85
2021/12/20 04:34:30;;;;;;;12.38;2.13;;;;;;;;;;4852923;29;20250;-84
2021/12/20 04:36:56;;;;;;;8.30;2.28;;;;;;;;;;4856500;29;20037;-84
2021/12/20 04:39:26;;;;;;;13.48;1.95;;;;;;;;;;4855217;29;20502;-85
2021/12/20 04:41:52;;;;;;;20.65;2.17;;;;;;;;;;4857101;29;20033;-85
2021/12/20 04:44:18;;;;;;;21.10;2.35;;;;;;;;;;4870273;29;20089;-84
2021/12/20 04:46:45;;;;;;;18.10;2.42;;;;;;;;;;4855081;29;20397;-83
2021/12/20 04:49:11;;;;;;;17.83;2.97;;;;;;;;;;4855450;29;20034;-85
2021/12/20 04:51:37;;;;;;;17.10;2.05;;;;;;;;;;4855016;29;20124;-84
2021/12/20 04:54:03;;;;;;;15.15;2.10;;;;;;;;;;4856384;29;20021;-85
2021/12/20 04:56:29;;;;;;;9.63;2.40;;;;;;;;;;4852653;29;20048;-84
2021/12/20 04:58:55;;;;;;;11.70;2.00;;;;;;;;;;4852047;29;20136;-85
2021/12/20 05:01:21;;;;;;;18.17;2.42;;;;;;;;;;4835373;29;20499;-84
2021/12/20 05:03:47;;;;;;;15.90;2.45;;;;;;;;;;4838236;29;20386;-84
2021/12/20 05:06:13;;;;;;;9.50;2.35;;;;;;;;;;4852111;29;20096;-83
2021/12/20 05:08:48;;;;;;;18.27;3.28;;;;;;;;;;4837467;29;20030;-84
2021/12/20 05:11:14;;;;;;;25.65;2.88;;;;;;;;;;4853203;29;20139;-83
2021/12/20 05:13:40;;;;;;;16.10;1.98;;;;;;;;;;4850713;29;20033;-84
2021/12/20 05:16:06;;;;;;;20.95;2.08;;;;;;;;;;4850397;29;20025;-84
2021/12/20 05:18:32;;;;;;;17.30;2.22;;;;;;;;;;4850225;29;20494;-84
2021/12/20 05:20:59;;;;;;;19.80;2.58;;;;;;;;;;4854820;29;20041;-84
2021/12/20 05:23:25;;;;;;;21.52;2.45;;;;;;;;;;4851362;29;20048;-84
2021/12/20 05:25:51;;;;;;;19.45;2.28;;;;;;;;;;4837799;29;20490;-84
2021/12/20 05:28:17;;;;;;;19.65;2.78;;;;;;;;;;4851286;29;20081;-84
2021/12/20 05:30:48;;;;;;;13.63;3.75;;;;;;;;;;4833041;29;20077;-83
2021/12/20 05:33:14;;;;;;;18.42;2.45;;;;;;;;;;4855750;29;20045;-84
2021/12/20 05:35:40;;;;;;;13.52;2.42;;;;;;;;;;4852009;29;20116;-83
2021/12/20 05:38:06;;;;;;;8.55;1.73;;;;;;;;;;4852944;29;20383;-84
2021/12/20 05:40:32;;;;;;;21.48;2.42;;;;;;;;;;4835482;29;20096;-84
2021/12/20 05:42:58;;;;;;;15.57;2.33;;;;;;;;;;4834431;29;20398;-83
2021/12/20 05:45:24;;;;;;;19.77;3.10;;;;;;;;;;4834569;29;20391;-83
2021/12/20 05:47:51;;;;;;;15.70;2.33;;;;;;;;;;4837322;29;20444;-84
2021/12/20 05:50:19;;;;;;;8.82;2.40;;;;;;;;;;4835428;29;20061;-84
2021/12/20 05:52:46;;;;;;;14.02;1.95;;;;;;;;;;4834123;29;20026;-82
2021/12/20 05:55:12;;;;;;;12.80;2.05;;;;;;;;;;4832597;29;20029;-84
2021/12/20 05:57:38;;;;;;;10.63;2.72;;;;;;;;;;4835136;29;20044;-84
2021/12/20 06:00:19;;;;;;;17.50;4.70;;;;;;;;;;4838916;29;20062;-83
2021/12/20 06:02:46;;;;;;;25.20;2.78;;;;;;;;;;4834179;29;20045;-83
2021/12/20 06:05:12;;;;;;;45.80;14.60;;;;;;;;;;4836062;29;20032;-84
2021/12/20 06:07:41;;;;;;;22.10;4.43;;;;;;;;;;4849563;29;20112;-84
2021/12/20 06:10:08;;;;;;;16.63;3.90;;;;;;;;;;4837029;29;20112;-83
2021/12/20 06:12:35;;;;;;;24.80;2.92;;;;;;;;;;4831328;29;20041;-84
2021/12/20 06:15:01;;;;;;;20.85;3.30;;;;;;;;;;4836444;29;20467;-83
2021/12/20 06:17:27;;;;;;;20.90;3.30;;;;;;;;;;4835165;29;20045;-84
2021/12/20 06:19:53;;;;;;;20.75;3.03;;;;;;;;;;4834353;29;20056;-83
2021/12/20 06:22:19;;;;;;;21.42;2.63;;;;;;;;;;4836864;29;20419;-83
2021/12/20 06:24:45;;;;;;;21.85;2.65;;;;;;;;;;4830090;29;20403;-84
2021/12/20 06:27:11;;;;;;;19.27;2.63;;;;;;;;;;4833971;29;20033;-84
2021/12/20 06:29:38;;;;;;;16.13;3.28;;;;;;;;;;4831636;29;20667;-83
2021/12/20 06:32:04;;;;;;;16.98;3.17;;;;;;;;;;4834195;29;20033;-84
2021/12/20 06:34:30;;;;;;;16.85;2.95;;;;;;;;;;4833751;29;20137;-84
2021/12/20 06:36:56;;;;;;;21.27;3.35;;;;;;;;;;4850068;29;20037;-84
2021/12/20 06:39:23;;;;;;;23.17;3.60;;;;;;;;;;4836292;29;20033;-83
2021/12/20 06:41:49;;;;;;;20.35;3.35;;;;;;;;;;4848062;29;20109;-83
2021/12/20 06:44:15;;;;;;;15.27;3.13;;;;;;;;;;4836254;29;20069;-84
2021/12/20 06:46:42;;;;;;;23.15;4.15;;;;;;;;;;4833313;29;20093;-82
2021/12/20 06:49:09;;;;;;;17.58;3.35;;;;;;;;;;4851054;29;20083;-84
2021/12/20 06:51:40;;;;;;;13.45;2.92;;;;;;;;;;4832905;29;20041;-83
2021/12/20 06:54:06;;;;;;;22.80;4.22;;;;;;;;;;4846994;29;20102;-82
2021/12/20 06:56:32;;;;;;;30.63;3.53;;;;;;;;;;4847913;29;20089;-84
2021/12/20 06:58:58;;;;;;;12.75;3.05;;;;;;;;;;4836734;29;20502;-83
2021/12/20 07:01:24;;;;;;;15.20;3.75;;;;;;;;;;4852698;29;20092;-82
2021/12/20 07:03:50;;;;;;;18.55;3.40;;;;;;;;;;4866645;29;20069;-83
2021/12/20 07:06:16;;;;;;;14.60;3.17;;;;;;;;;;4850255;29;20065;-83
2021/12/20 07:08:42;;;;;;;8.43;2.70;;;;;;;;;;4856476;29;20037;-83
2021/12/20 07:11:09;;;;;;;17.33;2.70;;;;;;;;;;4854221;29;20037;-83
2021/12/20 07:13:35;;;;;;;16.38;3.67;;;;;;;;;;4863432;29;20238;-84
2021/12/20 07:16:01;;;;;;;19.67;4.90;;;;;;;;;;4854227;29;20481;-83
2021/12/20 07:18:27;;;;;;;16.38;3.63;;;;;;;;;;4870826;29;20065;-82
2021/12/20 07:20:54;;;;;;;11.15;3.35;;;;;;;;;;4872396;29;20041;-82
2021/12/20 07:23:21;;;;;;;17.15;3.88;;;;;;;;;;4871556;29;20044;-84
2021/12/20 07:25:48;;;;;;;16.05;3.55;;;;;;;;;;4857757;29;20104;-79
2021/12/20 07:28:14;;;;;;;12.98;3.25;;;;;;;;;;4856223;29;20029;-79
2021/12/20 07:30:40;;;;;;;13.38;2.97;;;;;;;;;;4869578;29;20504;-80
2021/12/20 07:33:08;;;;;;;13.55;3.20;;;;;;;;;;4858541;29;20389;-80
2021/12/20 07:35:34;;;;;;;16.38;3.85;;;;;;;;;;4858686;29;20037;-79
2021/12/20 07:38:03;;;;;;;19.13;4.13;;;;;;;;;;4869219;29;20124;-79
2021/12/20 07:40:29;;;;;;;24.48;3.78;;;;;;;;;;4855697;29;20045;-80
2021/12/20 07:42:55;;;;;;;13.85;4.03;;;;;;;;;;4868181;29;20043;-79
2021/12/20 07:45:21;;;;;;;25.65;4.20;;;;;;;;;;4871325;29;20088;-80
2021/12/20 07:47:51;;;;;;;19.33;3.75;;;;;;;;;;4854818;29;20040;-80
2021/12/20 07:50:18;;;;;;;19.13;3.72;;;;;;;;;;4851591;29;20515;-79
2021/12/20 07:52:44;;;;;;;21.00;4.15;;;;;;;;;;4856318;29;20033;-80
2021/12/20 07:55:11;;;;;;;20.80;4.63;;;;;;;;;;4855318;29;20040;-79
2021/12/20 07:57:37;;;;;;;15.75;3.80;;;;;;;;;;4857091;29;20040;-80
2021/12/20 08:00:18;;;;;;;12.95;3.47;;;;;;;;;;4854472;29;20053;-80
2021/12/20 08:02:45;;;;;;;20.40;3.50;;;;;;;;;;4854350;29;20040;-80
2021/12/20 08:05:13;;;;;;;18.42;5.32;;;;;;;;;;4868801;29;20030;-80
2021/12/20 08:07:40;;;;;;;19.55;4.10;;;;;;;;;;4866878;29;20033;-80
2021/12/20 08:10:07;;;;;;;22.45;3.85;;;;;;;;;;4851219;29;20730;-79
2021/12/20 08:12:33;;;;;;;18.00;3.28;;;;;;;;;;4857619;29;20498;-80
2021/12/20 08:14:59;;;;;;;24.30;3.60;;;;;;;;;;4857212;29;20029;-80
2021/12/20 08:17:25;;;;;;;16.73;3.70;;;;;;;;;;4871141;29;20132;-81
2021/12/20 08:19:51;;;;;;;11.95;2.90;;;;;;;;;;4872679;29;20375;-79
2021/12/20 08:22:17;;;;;;;17.58;5.32;;;;;;;;;;4866869;29;20033;-79
2021/12/20 08:24:43;;;;;;;18.38;3.47;;;;;;;;;;4850375;29;20029;-79
2021/12/20 08:27:09;;;;;;;19.52;3.30;;;;;;;;;;4854647;29;20033;-79
2021/12/20 08:29:35;;;;;;;23.38;4.53;;;;;;;;;;4854096;29;20094;-79
2021/12/20 08:32:02;;;;;;;20.10;4.95;;;;;;;;;;4856215;29;20037;-79
2021/12/20 08:34:30;;;;;;;13.35;4.70;;;;;;;;;;4852747;29;20055;-79
2021/12/20 08:36:57;;;;;;;18.38;4.13;;;;;;;;;;4870487;29;20645;-79
2021/12/20 08:39:23;;;;;;;17.98;3.63;;;;;;;;;;4854315;29;20081;-78
2021/12/20 08:41:49;;;;;;;11.18;3.25;;;;;;;;;;4854709;29;20481;-79
2021/12/20 08:44:18;;;;;;;21.45;3.70;;;;;;;;;;4854809;29;20524;-79
2021/12/20 08:46:44;;;;;;;18.70;4.43;;;;;;;;;;4853148;29;20050;-80
2021/12/20 08:49:10;;;;;;;19.38;3.60;;;;;;;;;;4868264;29;20044;-79
2021/12/20 08:51:37;;;;;;;22.77;4.95;;;;;;;;;;4854184;29;20448;-79
2021/12/20 08:54:03;;;;;;;32.45;5.22;;;;;;;;;;4870880;29;20029;-79
2021/12/20 08:56:29;;;;;;;27.67;5.63;;;;;;;;;;4851728;29;20037;-79
2021/12/20 08:58:55;;;;;;;24.98;5.18;;;;;;;;;;4852240;29;20057;-79
2021/12/20 09:01:21;;;;;;;17.88;4.43;;;;;;;;;;4855084;29;20117;-80
2021/12/20 09:03:47;;;;;;;19.33;4.30;;;;;;;;;;4870238;29;20025;-79
2021/12/20 09:06:13;;;;;;;17.20;5.00;;;;;;;;;;4869283;29;20033;-80
2021/12/20 09:08:41;;;;;;;27.77;5.68;;;;;;;;;;4851520;29;20051;-79
2021/12/20 09:11:08;;;;;;;23.98;5.82;;;;;;;;;;4869376;29;20032;-79
2021/12/20 09:13:34;;;;;;;33.28;6.68;;;;;;;;;;4851026;29;20390;-80
2021/12/20 09:16:00;;;;;;;21.95;5.13;;;;;;;;;;4867554;29;20101;-79
2021/12/20 09:18:29;;;;;;;23.27;6.03;;;;;;;;;;4853514;29;20041;-80
2021/12/20 09:20:56;;;;;;;24.70;5.32;;;;;;;;;;4853456;29;20112;-79
2021/12/20 09:23:26;;;;;;;28.65;4.68;;;;;;;;;;4852763;29;20089;-79
2021/12/20 09:25:52;;;;;;;28.60;5.28;;;;;;;;;;4855527;29;20033;-79
2021/12/20 09:28:18;;;;;;;17.85;4.75;;;;;;;;;;4853327;29;20048;-79
2021/12/20 09:30:45;;;;;;;29.77;4.47;;;;;;;;;;4868194;29;20036;-79
2021/12/20 09:33:11;;;;;;;21.35;4.20;;;;;;;;;;4853850;29;20028;-79
2021/12/20 09:35:38;;;;;;;22.35;4.93;;;;;;;;;;4866965;29;20033;-79
2021/12/20 09:38:09;;;;;;;26.55;4.57;;;;;;;;;;4870184;29;20104;-79
2021/12/20 09:41:01;;;;;;;27.90;5.13;;;;;;;;;;4870127;29;20060;-79
2021/12/20 09:43:27;;;;;;;29.13;4.18;;;;;;;;;;4855248;29;20462;-79
2021/12/20 09:45:53;;;;;;;27.90;4.53;;;;;;;;;;4854579;29;20037;-80
2021/12/20 09:48:19;;;;;;;26.23;4.47;;;;;;;;;;4856535;29;20052;-79
2021/12/20 09:50:46;;;;;;;31.35;5.18;;;;;;;;;;4867753;29;20113;-80
2021/12/20 09:53:13;;;;;;;21.20;5.22;;;;;;;;;;4852538;29;20039;-80
2021/12/20 09:55:39;;;;;;;30.17;6.07;;;;;;;;;;4865096;29;20128;-79
2021/12/20 09:58:05;;;;;;;34.85;6.30;;;;;;;;;;4849305;29;20037;-80
2021/12/20 10:00:32;;;;;;;30.20;5.63;;;;;;;;;;4867437;29;20131;-79
2021/12/20 10:02:58;;;;;;;40.03;5.80;;;;;;;;;;4851609;29;20041;-80
2021/12/20 10:05:24;;;;;;;43.30;6.05;;;;;;;;;;4851942;29;20037;-84
2021/12/20 10:07:56;;;;;;;32.78;5.97;;;;;;;;;;4867796;29;20037;-84
2021/12/20 10:10:40;;;;;;;28.77;5.68;;;;;;;;;;4870199;29;20793;-83
2021/12/20 10:13:07;;;;;;;21.67;5.03;;;;;;;;;;4852578;29;20029;-84
2021/12/20 10:15:38;;;;;;;22.27;5.97;;;;;;;;;;4870464;29;20056;-83
2021/12/20 10:18:05;;;;;;;29.40;7.10;;;;;;;;;;4864031;29;20488;-84
2021/12/20 10:20:33;;;;;;;25.63;6.15;;;;;;;;;;4850539;29;20040;-85
2021/12/20 10:23:14;;;;;;;17.48;6.00;;;;;;;;;;4853751;29;20060;-85
2021/12/20 10:25:41;;;;;;;15.13;5.55;;;;;;;;;;4851860;29;20127;-84
2021/12/20 10:28:10;;;;;;;23.17;6.10;;;;;;;;;;4850617;29;20493;-85
2021/12/20 10:30:40;;;;;;;35.00;6.88;;;;;;;;;;4854154;29;20092;-84
2021/12/20 10:33:11;;;;;;;23.27;6.78;;;;;;;;;;4854209;29;20052;-84
2021/12/20 10:35:37;;;;;;;28.10;7.10;;;;;;;;;;4870491;29;20699;-84
2021/12/20 10:38:09;;;;;;;24.73;6.63;;;;;;;;;;4867660;29;20509;-84
2021/12/20 10:40:46;;;;;;;21.60;6.75;;;;;;;;;;4870044;29;20120;-85
2021/12/20 10:43:14;;;;;;;26.52;7.35;;;;;;;;;;4853782;29;20036;-85
2021/12/20 10:45:40;;;;;;;19.60;6.63;;;;;;;;;;4850266;29;20128;-85
2021/12/20 10:48:13;;;;;;;24.00;7.93;;;;;;;;;;4859204;29;20133;-84
2021/12/20 10:50:42;;;;;;;26.10;7.60;;;;;;;;;;4856885;29;20021;-84
2021/12/20 10:53:15;;;;;;;38.50;9.00;;;;;;;;;;4873893;29;23664;-85
2021/12/20 10:55:43;;;;;;;27.10;7.22;;;;;;;;;;4853829;29;20033;-84
2021/12/20 10:58:36;;;;;;;32.08;7.80;;;;;;;;;;4868665;29;20152;-83
2021/12/20 11:01:02;;;;;;;30.95;7.72;;;;;;;;;;4856886;29;20037;-84
2021/12/20 11:03:35;;;;;;;29.23;8.38;;;;;;;;;;4858962;29;20041;-83
2021/12/20 11:09:07;;;;;;;22.92;7.40;;;;;;;;;;4817494;29;20185;-84
2021/12/20 11:11:39;;;;;;;32.28;8.27;;;;;;;;;;4872362;29;20064;-84
2021/12/20 11:14:06;;;;;;;35.33;7.97;;;;;;;;;;4853982;29;20032;-83
2021/12/20 11:16:34;;;;;;;24.30;9.57;;;;;;;;;;4869616;29;20662;-83
2021/12/20 11:19:20;;;;;;;23.48;8.52;;;;;;;;;;4860471;29;20048;-85
2021/12/20 11:21:49;;;;;;;26.48;8.55;;;;;;;;;;4858172;29;20041;-83
2021/12/20 11:24:17;;;;;;;25.90;8.52;;;;;;;;;;4870934;29;20058;-85
2021/12/20 11:26:43;;;;;;;22.65;8.52;;;;;;;;;;4865276;29;20036;-85
2021/12/20 11:29:10;;;;;;;21.42;7.20;;;;;;;;;;4874089;29;20116;-85
2021/12/20 11:31:37;;;;;;;27.52;6.40;;;;;;;;;;4857914;29;20036;-85
2021/12/20 11:34:04;;;;;;;23.92;7.25;;;;;;;;;;4866839;29;20463;-85
2021/12/20 11:36:30;;;;;;;19.65;5.72;;;;;;;;;;4871192;29;20037;-85
2021/12/20 11:38:59;;;;;;;16.45;5.20;;;;;;;;;;4856391;29;20032;-85
2021/12/20 11:41:28;;;;;;;16.27;4.35;;;;;;;;;;4855737;29;20029;-83
2021/12/20 11:43:55;;;;;;;13.68;4.82;;;;;;;;;;4871804;29;20524;-85
2021/12/20 11:46:22;;;;;;;12.93;4.40;;;;;;;;;;4857268;29;20660;-83
2021/12/20 11:48:50;;;;;;;21.65;5.43;;;;;;;;;;4873243;29;20648;-85
2021/12/20 11:51:16;;;;;;;13.90;3.78;;;;;;;;;;4872127;29;20033;-84
2021/12/20 11:53:42;;;;;;;14.93;4.20;;;;;;;;;;4872411;29;20032;-85
2021/12/20 11:56:08;;;;;;;19.65;4.50;;;;;;;;;;4874115;29;20025;-83
2021/12/20 11:58:37;;;;;;;19.40;5.25;;;;;;;;;;4873326;29;20040;-84
2021/12/20 12:01:05;;;;;;;20.45;4.85;;;;;;;;;;4857659;29;20060;-85
2021/12/20 12:03:32;;;;;;;13.75;4.45;;;;;;;;;;4857999;29;20037;-86
2021/12/20 12:05:59;;;;;;;13.57;4.45;;;;;;;;;;4872416;29;20028;-84
2021/12/20 12:08:29;;;;;;;16.80;5.20;;;;;;;;;;4875219;29;20822;-84
2021/12/20 12:10:56;;;;;;;17.05;4.57;;;;;;;;;;4857820;29;20037;-85
2021/12/20 12:13:26;;;;;;;17.45;4.30;;;;;;;;;;4860209;29;20029;-85
2021/12/20 12:16:04;;;;;;;16.27;4.40;;;;;;;;;;4873430;29;20087;-86
2021/12/20 12:18:45;;;;;;;18.52;5.30;;;;;;;;;;4855653;29;20541;-85
2021/12/20 12:21:39;;;;;;;19.40;4.70;;;;;;;;;;4874395;29;20490;-84
2021/12/20 12:24:14;;;;;;;17.25;4.70;;;;;;;;;;4853631;29;20045;-85
2021/12/20 12:26:42;;;;;;;16.63;4.57;;;;;;;;;;4857167;29;20053;-85
2021/12/20 12:29:28;;;;;;;18.35;4.53;;;;;;;;;;4867500;29;20413;-86
2021/12/20 12:31:54;;;;;;;;;;;;;;;;;;4855098;29;20085;-86
2021/12/20 12:34:21;;;;;;;13.27;4.50;;;;;;;;;;4870467;29;19916;-86
2021/12/20 12:36:47;;;;;;;13.20;3.08;;;;;;;;;;4857090;29;20036;-85
2021/12/20 12:39:22;;;;;;;6.95;2.83;;;;;;;;;;4871537;29;20529;-85
2021/12/20 12:41:55;;;;;;;6.32;2.53;;;;;;;;;;4854082;29;20029;-86
2021/12/20 12:44:22;;;;;;;10.55;2.20;;;;;;;;;;4859894;29;20063;-85
2021/12/20 12:46:51;;;;;;;5.15;1.92;;;;;;;;;;4858132;29;20095;-86
2021/12/20 12:49:24;;;;;;;9.13;2.50;;;;;;;;;;4856533;29;20071;-86
2021/12/20 12:51:51;;;;;;;9.23;2.97;;;;;;;;;;4857665;29;20073;-87
2021/12/20 12:54:38;;;;;;;6.18;2.30;;;;;;;;;;4852883;29;20032;-85
2021/12/20 12:57:10;;;;;;;10.25;2.40;;;;;;;;;;4867974;29;20249;-86
2021/12/20 12:59:42;;;;;;;10.82;2.40;;;;;;;;;;4856589;29;20120;-86
2021/12/20 13:02:13;;;;;;;8.45;2.20;;;;;;;;;;4838087;29;20610;-85
2021/12/20 13:04:46;;;;;;;7.68;2.72;;;;;;;;;;4834922;29;20482;-86
2021/12/20 13:07:16;;;;;;;9.98;2.53;;;;;;;;;;4835009;29;20052;-85
2021/12/20 13:09:44;;;;;;;10.65;2.65;;;;;;;;;;4852429;29;20061;-85
2021/12/20 13:12:14;;;;;;;14.15;2.92;;;;;;;;;;4833644;29;20044;-85
2021/12/20 13:14:54;;;;;;;10.43;2.55;;;;;;;;;;4839309;29;20038;-86
2021/12/20 13:17:30;;;;;;;7.78;1.92;;;;;;;;;;4834809;29;20187;-86
2021/12/20 13:20:18;;;;;;;13.40;3.42;;;;;;;;;;4853668;29;20049;-86
2021/12/20 13:22:52;;;;;;;8.55;2.47;;;;;;;;;;4850149;29;20035;-85
2021/12/20 13:25:42;;;;;;;6.13;1.75;;;;;;;;;;4844915;29;20037;-84
2021/12/20 13:28:13;;;;;;;9.68;2.25;;;;;;;;;;4826112;29;20743;-81
2021/12/20 13:30:41;;;;;;;4.35;1.50;;;;;;;;;;4832703;29;20045;-81
2021/12/20 13:33:07;;;;;;;5.78;1.70;;;;;;;;;;4835931;29;20482;-81
2021/12/20 13:35:33;;;;;;;5.85;1.58;;;;;;;;;;4849196;29;20562;-81
2021/12/20 13:38:13;;;;;;;8.98;1.70;;;;;;;;;;4839750;29;20064;-82
2021/12/20 13:40:46;;;;;;;9.55;1.92;;;;;;;;;;4832181;29;20576;-80
2021/12/20 13:43:13;;;;;;;7.32;1.45;;;;;;;;;;4845103;29;20109;-81
2021/12/20 13:45:39;;;;;;;4.72;1.65;;;;;;;;;;4835116;29;20056;-83
2021/12/20 13:48:09;;;;;;;5.80;2.30;;;;;;;;;;4834926;29;20495;-82
2021/12/20 13:50:35;;;;;;;6.43;1.50;;;;;;;;;;4847363;29;20110;-81
2021/12/20 13:53:01;;;;;;;7.15;1.73;;;;;;;;;;4830572;29;20026;-81
2021/12/20 13:55:33;;;;;;;7.82;1.77;;;;;;;;;;4833807;29;20034;-82
2021/12/20 13:57:59;;;;;;;10.80;1.75;;;;;;;;;;4847331;29;20033;-81
2021/12/20 14:00:32;;;;;;;7.45;2.08;;;;;;;;;;4835514;29;20045;-81
2021/12/20 14:03:01;;;;;;;8.38;1.52;;;;;;;;;;4838382;29;20423;-82
2021/12/20 14:05:27;;;;;;;6.88;1.67;;;;;;;;;;4833725;29;20048;-81
2021/12/20 14:07:58;;;;;;;9.75;1.63;;;;;;;;;;4835696;29;20115;-82
2021/12/20 14:10:34;;;;;;;5.70;1.45;;;;;;;;;;4847489;29;20033;-81
2021/12/20 14:13:02;;;;;;;9.93;1.52;;;;;;;;;;4835038;29;20029;-81
2021/12/20 14:15:32;;;;;;;13.52;2.05;;;;;;;;;;4833359;29;20026;-80
2021/12/20 14:18:03;;;;;;;7.53;1.65;;;;;;;;;;4834724;29;20124;-81
2021/12/20 14:20:39;;;;;;;4.25;1.30;;;;;;;;;;4850382;29;20037;-80
2021/12/20 14:23:07;;;;;;;4.65;1.75;;;;;;;;;;4848332;29;20188;-80
2021/12/20 14:25:35;;;;;;;10.30;1.40;;;;;;;;;;4834967;29;20041;-81
2021/12/20 14:28:10;;;;;;;9.77;2.90;;;;;;;;;;4828444;29;20780;-81
2021/12/20 14:30:42;;;;;;;10.15;2.30;;;;;;;;;;4851069;29;20034;-81
2021/12/20 14:33:31;;;;;;;9.93;2.13;;;;;;;;;;4835180;29;20029;-81
2021/12/20 14:36:00;;;;;;;10.23;1.90;;;;;;;;;;4835075;29;20101;-81
2021/12/20 14:38:34;;;;;;;16.00;3.15;;;;;;;;;;4848530;29;20048;-81
2021/12/20 14:41:01;;;;;;;20.33;2.25;;;;;;;;;;4829714;29;20038;-82
2021/12/20 14:43:32;;;;;;;11.98;1.80;;;;;;;;;;4846084;29;20406;-81
2021/12/20 14:46:10;;;;;;;11.77;1.90;;;;;;;;;;4834867;29;20040;-80
2021/12/20 14:48:43;;;;;;;12.55;2.30;;;;;;;;;;4835913;29;20160;-81
2021/12/20 14:51:25;;;;;;;9.38;1.73;;;;;;;;;;4833301;29;20113;-81
2021/12/20 14:54:24;;;;;;;8.73;2.40;;;;;;;;;;4845114;29;20732;-80
2021/12/20 14:56:53;;;;;;;16.98;2.00;;;;;;;;;;4793993;29;20064;-81